createdAt,value
2019-02-26T00:02:17.284Z,5.52
2019-02-26T00:08:10.527Z,5.88
2019-02-26T00:14:05.570Z,5.44
2019-02-26T00:20:00.606Z,4.82
2019-02-26T00:25:55.548Z,4.67
2019-02-26T00:31:51.155Z,5.77
2019-02-26T00:37:46.573Z,6.62
2019-02-26T00:43:40.586Z,6.26
2019-02-26T00:49:35.562Z,5.4
2019-02-26T00:55:32.114Z,6.17
2019-02-26T01:01:25.564Z,5.9
2019-02-26T01:07:21.321Z,6.54
2019-02-26T01:13:15.571Z,6.16
2019-02-26T01:19:11.187Z,5.4
2019-02-26T01:25:05.578Z,6.32
2019-02-26T01:31:02.577Z,6.7
2019-02-26T01:36:55.567Z,5.92
2019-02-26T01:42:52.790Z,5.98
2019-02-26T01:48:45.603Z,6.8
2019-02-26T01:54:40.594Z,7.17
2019-02-26T02:00:35.645Z,6.16
2019-02-26T02:06:32.100Z,5.65
2019-02-26T02:12:29.351Z,5.96
2019-02-26T02:18:22.878Z,5.1
2019-02-26T02:24:17.342Z,4.97
2019-02-26T02:30:14.112Z,4.55
2019-02-26T02:36:05.615Z,4.81
2019-02-26T02:42:00.605Z,4.58
2019-02-26T02:48:00.272Z,5.8
2019-02-26T02:53:53.467Z,4.87
2019-02-26T02:59:45.598Z,6.82
2019-02-26T03:05:42.794Z,5.63
2019-02-26T03:11:36.609Z,4.09
2019-02-26T03:17:30.651Z,5.38
2019-02-26T03:23:25.617Z,4.78
2019-02-26T03:29:20.629Z,4.24
2019-02-26T03:35:16.580Z,4.05
2019-02-26T03:41:10.610Z,4.93
2019-02-26T03:47:05.630Z,4.53
2019-02-26T03:53:00.623Z,4.04
2019-02-26T03:58:57.680Z,4.02
2019-02-26T04:04:53.855Z,4.58
2019-02-26T04:10:47.892Z,3.97
2019-02-26T04:16:42.925Z,4.07
2019-02-26T04:22:35.652Z,3.6
2019-02-26T04:28:32.851Z,4.26
2019-02-26T04:34:25.684Z,3.42
2019-02-26T04:40:20.644Z,3.5
2019-02-26T04:46:15.644Z,2.95
2019-02-26T04:52:13.724Z,3.15
2019-02-26T04:58:05.643Z,3.18
2019-02-26T05:04:00.706Z,3.87
2019-02-26T05:09:56.658Z,3.12
2019-02-26T05:15:50.662Z,3.45
2019-02-26T05:21:45.670Z,3.1
2019-02-26T05:27:42.725Z,2.96
2019-02-26T05:33:35.659Z,2.57
2019-02-26T05:39:30.650Z,17.38
2019-02-26T05:45:26.444Z,10.08
2019-02-26T05:51:20.670Z,5.6
2019-02-26T05:57:25.854Z,3.6
2019-02-26T06:03:12.331Z,3.63
2019-02-26T06:09:07.549Z,3.09
2019-02-26T06:15:04.232Z,3.3
2019-02-26T06:20:56.691Z,2.97
2019-02-26T06:26:52.795Z,3.37
2019-02-26T06:32:45.698Z,4.5
2019-02-26T06:38:40.718Z,2.9
2019-02-26T06:44:36.828Z,3.92
2019-02-26T06:50:31.745Z,2.78
2019-02-26T06:56:25.661Z,3.03
2019-02-26T07:02:20.682Z,5.56
2019-02-26T07:08:15.680Z,3.63
2019-02-26T07:14:10.688Z,3.5
2019-02-26T07:20:05.667Z,3.81
2019-02-26T07:26:00.669Z,3.9
2019-02-26T07:31:56.951Z,3.54
2019-02-26T07:37:52.283Z,4.08
2019-02-26T07:43:46.769Z,5.4
2019-02-26T07:49:40.706Z,6.56
2019-02-26T07:55:37.664Z,5.92
2019-02-26T08:01:30.691Z,6.16
2019-02-26T08:07:26.591Z,6.43
2019-02-26T08:13:20.668Z,6.85
2019-02-26T08:19:15.699Z,7.7
2019-02-26T08:25:10.746Z,6.87
2019-02-26T08:31:05.686Z,7.05
2019-02-26T08:37:00.708Z,6.24
2019-02-26T08:42:55.707Z,5.86
2019-02-26T08:48:50.859Z,8.77
2019-02-26T08:54:45.702Z,9.58
2019-02-26T09:00:40.736Z,7.96
2019-02-26T09:06:35.713Z,9.03
2019-02-26T09:12:30.701Z,9.02
2019-02-26T09:18:27.980Z,7.91
2019-02-26T09:24:20.729Z,7.43
2019-02-26T09:30:16.102Z,7.89
2019-02-26T09:36:13.004Z,6.2
2019-02-26T09:42:06.473Z,5.82
2019-02-26T09:48:01.242Z,5.17
2019-02-26T09:53:56.535Z,5.25
2019-02-26T09:59:52.191Z,5.29
2019-02-26T10:05:47.634Z,3.7
2019-02-26T10:11:41.983Z,4.34
2019-02-26T10:17:38.005Z,4.1
2019-02-26T10:23:32.958Z,4.2
2019-02-26T10:29:25.724Z,3.57
2019-02-26T10:35:22.604Z,2.15
2019-02-26T10:41:15.729Z,2.14
2019-02-26T10:47:10.786Z,2.2
2019-02-26T10:53:09.835Z,2.11
2019-02-26T10:59:03.407Z,2.37
2019-02-26T11:04:56.313Z,1.88
2019-02-26T11:10:52.264Z,1.35
2019-02-26T11:16:45.735Z,1.1
2019-02-26T11:22:42.206Z,1.01
2019-02-26T11:28:37.834Z,1.44
2019-02-26T11:34:33.327Z,0.93
2019-02-26T11:40:27.994Z,1.21
2019-02-26T11:46:22.462Z,1.34
2019-02-26T11:52:19.528Z,1.47
2019-02-26T11:58:13.045Z,1.51
2019-02-26T12:04:06.512Z,2.32
2019-02-26T12:10:06.392Z,1.52
2019-02-26T12:15:55.735Z,1.81
2019-02-26T12:21:51.847Z,1.45
2019-02-26T12:27:47.581Z,1.68
2019-02-26T12:33:40.765Z,1.62
2019-02-26T12:39:35.743Z,1.65
2019-02-26T12:45:31.706Z,1.38
2019-02-26T12:51:28.073Z,1.3
2019-02-26T12:57:23.134Z,1.35
2019-02-26T13:03:19.549Z,1.04
2019-02-26T13:09:10.799Z,1.13
2019-02-26T13:21:03.613Z,1.19
2019-02-26T13:26:59.446Z,1.14
2019-02-26T13:32:56.000Z,1.68
2019-02-26T13:38:48.949Z,1.26
2019-02-26T13:44:40.784Z,1.33
2019-02-26T13:50:35.761Z,1.12
2019-02-26T13:56:30.755Z,1.33
2019-02-26T14:02:25.761Z,1.39
2019-02-26T14:08:20.768Z,1.15
2019-02-26T14:14:15.784Z,1.45
2019-02-26T14:20:10.799Z,1.36
2019-02-26T14:26:05.757Z,1.22
2019-02-26T14:32:00.760Z,1.45
2019-02-26T14:37:55.775Z,1.27
2019-02-26T14:43:50.794Z,1.21
2019-02-26T14:49:45.759Z,1.3
2019-02-26T14:55:40.769Z,1.72
2019-02-26T15:01:35.756Z,1.47
2019-02-26T15:07:30.777Z,1.09
2019-02-26T15:13:25.766Z,1.72
2019-02-26T15:19:20.774Z,1.51
2019-02-26T15:25:15.784Z,1.55
2019-02-26T15:31:10.773Z,6.72
2019-02-26T15:37:05.790Z,2.32
2019-02-26T15:43:00.777Z,2.5
2019-02-26T15:48:55.769Z,2.57
2019-02-26T15:54:50.786Z,2.83
2019-02-26T16:00:45.792Z,2.81
2019-02-26T16:06:40.766Z,3.16
2019-02-26T16:12:35.773Z,2.92
2019-02-26T16:18:30.784Z,3.06
2019-02-26T16:24:25.774Z,3.98
2019-02-26T16:30:20.850Z,3.61
2019-02-26T16:36:15.846Z,3.77
2019-02-26T16:42:11.737Z,4.3
2019-02-26T16:48:05.790Z,6.12
2019-02-26T16:54:00.800Z,4.94
2019-02-26T16:59:55.787Z,5.18
2019-02-26T17:05:50.783Z,13.01
2019-02-26T17:11:47.063Z,9.38
2019-02-26T17:17:40.804Z,8.21
2019-02-26T17:23:35.798Z,10.56
2019-02-26T17:29:30.780Z,20.37
2019-02-26T17:35:28.482Z,10.31
2019-02-26T17:41:20.798Z,17.15
2019-02-26T17:47:15.803Z,9.77
2019-02-26T17:53:10.843Z,8.44
2019-02-26T17:59:07.350Z,10.9
2019-02-26T18:05:01.678Z,16.27
2019-02-26T18:10:55.804Z,27.96
2019-02-26T18:16:50.798Z,73.68
2019-02-26T18:22:45.808Z,24.71
2019-02-26T18:28:40.856Z,20.51
2019-02-26T18:34:35.843Z,10.66
2019-02-26T18:40:30.876Z,21.58
2019-02-26T18:46:25.812Z,11.43
2019-02-26T18:52:20.888Z,16.09
2019-02-26T18:58:16.331Z,30.23
2019-02-26T19:04:10.818Z,20.78
2019-02-26T19:10:05.832Z,23.67
2019-02-26T19:16:00.850Z,13.11
2019-02-26T19:21:55.843Z,15.02
2019-02-26T19:27:53.061Z,8.72
2019-02-26T19:33:45.841Z,8.27
2019-02-26T19:39:40.838Z,8.88
2019-02-26T19:45:35.829Z,44.32
2019-02-26T19:51:30.856Z,19.45
2019-02-26T19:57:27.543Z,9.98
2019-02-26T20:03:20.834Z,10.37
2019-02-26T20:09:16.598Z,6.85
2019-02-26T20:15:10.864Z,11.06
2019-02-26T20:21:05.855Z,13.97
2019-02-26T20:27:00.852Z,11.21
2019-02-26T20:32:55.915Z,8.61
2019-02-26T20:38:50.860Z,9.18
2019-02-26T20:44:45.848Z,35.23
2019-02-26T20:50:40.881Z,18.21
2019-02-26T20:56:36.056Z,32.33
2019-02-26T21:02:30.889Z,16.85
2019-02-26T21:08:25.852Z,21.71
2019-02-26T21:14:20.875Z,7.68
2019-02-26T21:20:15.858Z,65.46
2019-02-26T21:26:10.840Z,46.02
2019-02-26T21:32:05.856Z,38.08
2019-02-26T21:38:00.886Z,55.33
2019-02-26T21:43:55.893Z,10.8
2019-02-26T21:49:50.862Z,11.11
2019-02-26T21:55:45.878Z,22.47
2019-02-26T22:01:41.388Z,9.05
2019-02-26T22:07:35.919Z,5.71
2019-02-26T22:13:30.878Z,8.18
2019-02-26T22:19:25.872Z,5.95
2019-02-26T22:25:20.884Z,8.46
2019-02-26T22:31:15.909Z,20.91
2019-02-26T22:37:10.876Z,55.39
2019-02-26T22:43:05.870Z,45.02
2019-02-26T22:49:00.865Z,59.81
2019-02-26T22:54:55.882Z,29.08
2019-02-26T23:00:50.903Z,40.35
2019-02-26T23:06:45.915Z,10.77
2019-02-26T23:12:40.887Z,14.38
2019-02-26T23:18:35.880Z,16.41
2019-02-26T23:24:30.862Z,9.43
2019-02-26T23:30:27.165Z,8.84
2019-02-26T23:36:20.894Z,8.27
2019-02-26T23:42:15.886Z,4.69
2019-02-26T23:48:10.885Z,3.16
2019-02-26T23:54:07.179Z,3.08
